English version
lugares datos climáticos artículos

datos de Mairena del Aljarafe, Sevilla, España
Año Mes Dia Mostrar

  Fecha       hora        Temp.ext.    Hum.ext.  Dir.Viento   Vel.Viento  Presion al NM   T.int. Prec.hoy 

   18-08-2022    10:35      24.9º(+2.2)     56%      045(NE)      1.6 km/h    1013.9 hpa     27.9º    0.0 mm
   18-08-2022    10:30      24.7º(+2.0)     56%      067(NE)      3.2 km/h    1013.9 hpa     27.9º    0.0 mm
   18-08-2022    10:25      24.7º(+2.1)     58%      067(NE)      1.6 km/h    1013.9 hpa     28.1º    0.0 mm
   18-08-2022    10:20      24.7º(+2.3)     62%      045(NE)      1.6 km/h    1013.8 hpa     28.1º    0.0 mm
   18-08-2022    10:15      24.7º(+2.5)     63%         -         0.0 km/h    1013.7 hpa     28.2º    0.0 mm
   18-08-2022    10:10      24.4º(+2.2)     66%         -         0.0 km/h    1013.7 hpa     28.1º    0.0 mm
   18-08-2022    10:05      23.9º(+1.8)     68%         -         0.0 km/h    1013.7 hpa     28.1º    0.0 mm
   18-08-2022    10:00      23.6º(+1.7)     70%         -         0.0 km/h    1013.6 hpa     28.1º    0.0 mm
   18-08-2022    09:55      23.2º(+1.4)     71%         -         0.0 km/h    1013.6 hpa     28.1º    0.0 mm
   18-08-2022    09:50      22.9º(+1.1)     73%         -         0.0 km/h    1013.7 hpa     27.9º    0.0 mm
   18-08-2022    09:45      22.7º(+0.9)     73%         -         0.0 km/h    1013.6 hpa     27.9º    0.0 mm
   18-08-2022    09:40      22.4º(+0.6)     76%         -         0.0 km/h    1013.5 hpa     27.8º    0.0 mm
   18-08-2022    09:35      22.1º(+0.5)     76%         -         0.0 km/h    1013.5 hpa     27.8º    0.0 mm
   18-08-2022    09:30      21.9º(+0.4)     78%         -         0.0 km/h    1013.4 hpa     27.8º    0.0 mm
   18-08-2022    09:25      21.5º(+0.2)     79%         -         0.0 km/h    1013.4 hpa     27.7º    0.0 mm
   18-08-2022    09:20      21.4º(+0.3)     78%         -         0.0 km/h    1013.6 hpa     27.6º    0.0 mm
   18-08-2022    09:15      21.2º(+0.2)     81%         -         0.0 km/h    1013.5 hpa     27.4º    0.0 mm
   18-08-2022    09:10      20.7º(-0.3)     82%         -         0.0 km/h    1013.4 hpa     27.3º    0.0 mm
   18-08-2022    09:05      20.4º(-0.6)     81%      247(SW)      1.6 km/h    1013.4 hpa     27.3º    0.0 mm
   18-08-2022    09:00      20.4º(-0.5)     82%         -         0.0 km/h    1013.3 hpa     27.2º    0.0 mm
   18-08-2022    08:55      20.3º(-0.5)     81%         -         0.0 km/h    1013.2 hpa     27.1º    0.0 mm
   18-08-2022    08:50      20.2º(-0.5)     82%         -         0.0 km/h    1013.1 hpa     27.1º    0.0 mm
   18-08-2022    08:45      20.1º(-0.6)     82%         -         0.0 km/h    1013.1 hpa     27.0º    0.0 mm
   18-08-2022    08:40      19.9º(-0.7)     82%         -         0.0 km/h    1013.1 hpa     26.9º    0.0 mm
   18-08-2022    08:35      19.8º(-0.6)     82%         -         0.0 km/h    1013.2 hpa     26.8º    0.0 mm
   18-08-2022    08:30      19.7º(-0.6)     82%         -         0.0 km/h    1013.1 hpa     26.8º    0.0 mm
   18-08-2022    08:25      19.7º(-0.5)     82%         -         0.0 km/h    1013.0 hpa     26.7º    0.0 mm
   18-08-2022    08:20      19.7º(-0.4)     82%         -         0.0 km/h    1012.9 hpa     26.6º    0.0 mm
   18-08-2022    08:15      19.6º(-0.4)     82%         -         0.0 km/h    1012.9 hpa     26.5º    0.0 mm
   18-08-2022    08:10      19.4º(-0.5)     82%         -         0.0 km/h    1012.8 hpa     26.5º    0.0 mm
   18-08-2022    08:05      19.4º(-0.5)     82%         -         0.0 km/h    1012.8 hpa     26.4º    0.0 mm
   18-08-2022    08:00      19.4º(-0.4)     82%         -         0.0 km/h    1012.7 hpa     26.4º    0.0 mm
   18-08-2022    07:55      19.3º(-0.5)     82%         -         0.0 km/h    1012.7 hpa     26.4º    0.0 mm
   18-08-2022    07:50      19.3º(-0.5)     82%         -         0.0 km/h    1012.6 hpa     26.4º    0.0 mm
   18-08-2022    07:45      19.3º(-0.5)     82%         -         0.0 km/h    1012.6 hpa     26.4º    0.0 mm
   18-08-2022    07:40      19.3º(-0.6)     81%         -         0.0 km/h    1012.6 hpa     26.3º    0.0 mm
   18-08-2022    07:35      19.3º(-0.6)     81%         -         0.0 km/h    1012.5 hpa     26.3º    0.0 mm
   18-08-2022    07:30      19.2º(-0.8)     81%         -         0.0 km/h    1012.4 hpa     26.3º    0.0 mm
   18-08-2022    07:25      19.3º(-0.7)     81%         -         0.0 km/h    1012.5 hpa     26.3º    0.0 mm
   18-08-2022    07:20      19.2º(-0.9)     81%         -         0.0 km/h    1012.4 hpa     26.3º    0.0 mm
   18-08-2022    07:15      19.2º(-0.9)     81%         -         0.0 km/h    1012.3 hpa     26.3º    0.0 mm
   18-08-2022    07:10      19.2º(-1.0)     81%         -         0.0 km/h    1012.3 hpa     26.2º    0.0 mm
   18-08-2022    07:05      19.2º(-1.0)     81%         -         0.0 km/h    1012.3 hpa     26.2º    0.0 mm
   18-08-2022    07:00      19.2º(-1.0)     81%         -         0.0 km/h    1012.2 hpa     26.2º    0.0 mm
   18-08-2022    06:55      19.2º(-1.1)     81%         -         0.0 km/h    1012.2 hpa     26.2º    0.0 mm
   18-08-2022    06:50      19.2º(-1.1)     81%         -         0.0 km/h    1012.2 hpa     26.2º    0.0 mm
   18-08-2022    06:45      19.2º(-1.2)     81%         -         0.0 km/h    1012.2 hpa     26.2º    0.0 mm
   18-08-2022    06:40      19.2º(-1.2)     81%         -         0.0 km/h    1012.2 hpa     26.1º    0.0 mm
   18-08-2022    06:35      19.2º(-1.4)     80%         -         0.0 km/h    1012.2 hpa     26.1º    0.0 mm
   18-08-2022    06:30      19.2º(-1.4)     80%         -         0.0 km/h    1012.2 hpa     26.1º    0.0 mm
   18-08-2022    06:25      19.2º(-1.5)     80%         -         0.0 km/h    1012.1 hpa     26.0º    0.0 mm
   18-08-2022    06:20      19.3º(-1.4)     80%         -         0.0 km/h    1012.1 hpa     26.0º    0.0 mm
   18-08-2022    06:15      19.3º(-1.4)     80%         -         0.0 km/h    1012.2 hpa     25.9º    0.0 mm
   18-08-2022    06:10      19.3º(-1.5)     80%         -         0.0 km/h    1012.3 hpa     25.9º    0.0 mm
   18-08-2022    06:05      19.3º(-1.5)     80%         -         0.0 km/h    1012.2 hpa     25.8º    0.0 mm
   18-08-2022    06:00      19.3º(-1.6)     80%      135(SE)      1.6 km/h    1012.1 hpa     25.7º    0.0 mm
   18-08-2022    05:55      19.3º(-1.6)     79%         -         0.0 km/h    1012.2 hpa     25.6º    0.0 mm
   18-08-2022    05:50      19.3º(-1.7)     79%         -         0.0 km/h    1012.2 hpa     25.6º    0.0 mm
   18-08-2022    05:45      19.3º(-1.7)     79%         -         0.0 km/h    1012.2 hpa     25.5º    0.0 mm
   18-08-2022    05:40      19.3º(-1.8)     79%         -         0.0 km/h    1012.2 hpa     25.5º    0.0 mm
   18-08-2022    05:35      19.3º(-1.9)     79%         -         0.0 km/h    1012.2 hpa     25.5º    0.0 mm
   18-08-2022    05:30      19.3º(-1.9)     79%         -         0.0 km/h    1012.2 hpa     25.5º    0.0 mm
   18-08-2022    05:25      19.3º(-2.0)     78%         -         0.0 km/h    1012.1 hpa     25.5º    0.0 mm
   18-08-2022    05:20      19.3º(-2.0)     78%         -         0.0 km/h    1012.0 hpa     25.6º    0.0 mm
   18-08-2022    05:15      19.3º(-2.0)     78%         -         0.0 km/h    1012.0 hpa     25.7º    0.0 mm
   18-08-2022    05:10      19.3º(-2.1)     78%         -         0.0 km/h    1012.0 hpa     25.7º    0.0 mm
   18-08-2022    05:05      19.4º(-2.0)     77%         -         0.0 km/h    1012.0 hpa     25.8º    0.0 mm
   18-08-2022    05:00      19.6º(-1.9)     76%         -         0.0 km/h    1012.1 hpa     25.9º    0.0 mm
   18-08-2022    04:55      19.9º(-1.7)     75%         -         0.0 km/h    1012.0 hpa     26.1º    0.0 mm
   18-08-2022    04:50      20.2º(-1.4)     75%         -         0.0 km/h    1011.9 hpa     26.2º    0.0 mm
   18-08-2022    04:45      20.4º(-1.3)     74%         -         0.0 km/h    1011.8 hpa     26.3º    0.0 mm
   18-08-2022    04:40      20.6º(-1.2)     74%         -         0.0 km/h    1011.8 hpa     26.5º    0.0 mm
   18-08-2022    04:35      20.7º(-1.1)     74%         -         0.0 km/h    1011.9 hpa     26.5º    0.0 mm
   18-08-2022    04:30      20.8º(-1.1)     74%         -         0.0 km/h    1011.8 hpa     26.6º    0.0 mm
   18-08-2022    04:25      20.8º(-1.2)     74%         -         0.0 km/h    1011.8 hpa     26.7º    0.0 mm
   18-08-2022    04:20      20.7º(-1.4)     74%         -         0.0 km/h    1011.8 hpa     26.8º    0.0 mm
   18-08-2022    04:15      20.7º(-1.4)     74%         -         0.0 km/h    1011.7 hpa     26.7º    0.0 mm
   18-08-2022    04:10      20.8º(-1.4)     74%         -         0.0 km/h    1011.7 hpa     26.7º    0.0 mm
   18-08-2022    04:05      20.8º(-1.5)     74%         -         0.0 km/h    1011.7 hpa     26.7º    0.0 mm
   18-08-2022    04:00      20.8º(-1.5)     73%         -         0.0 km/h    1011.8 hpa     26.7º    0.0 mm
   18-08-2022    03:55      20.8º(-1.6)     73%         -         0.0 km/h    1011.9 hpa     26.7º    0.0 mm
   18-08-2022    03:50      20.8º(-1.7)     73%         -         0.0 km/h    1011.8 hpa     26.7º    0.0 mm
   18-08-2022    03:45      20.8º(-1.8)     73%         -         0.0 km/h    1011.8 hpa     26.6º    0.0 mm
   18-08-2022    03:40      20.9º(-1.8)     73%         -         0.0 km/h    1011.8 hpa     26.6º    0.0 mm
   18-08-2022    03:35      20.9º(-1.8)     72%         -         0.0 km/h    1011.8 hpa     26.6º    0.0 mm
   18-08-2022    03:30      21.1º(-1.7)     73%         -         0.0 km/h    1011.8 hpa     26.5º    0.0 mm
   18-08-2022    03:25      21.1º(-1.7)     73%         -         0.0 km/h    1011.8 hpa     26.5º    0.0 mm
   18-08-2022    03:20      21.1º(-1.8)     72%         -         0.0 km/h    1011.7 hpa     26.4º    0.0 mm
   18-08-2022    03:15      21.1º(-1.9)     72%         -         0.0 km/h    1011.7 hpa     26.3º    0.0 mm
   18-08-2022    03:10      21.1º(-2.0)     71%         -         0.0 km/h    1011.8 hpa     26.3º    0.0 mm
   18-08-2022    03:05      21.2º(-2.0)     71%         -         0.0 km/h    1011.7 hpa     26.2º    0.0 mm
   18-08-2022    03:00      21.2º(-2.0)     70%         -         0.0 km/h    1011.8 hpa     26.2º    0.0 mm
   18-08-2022    02:55      21.3º(-2.0)     71%         -         0.0 km/h    1011.8 hpa     26.2º    0.0 mm
   18-08-2022    02:50      21.4º(-1.9)     71%         -         0.0 km/h    1011.9 hpa     26.3º    0.0 mm
   18-08-2022    02:45      21.4º(-2.0)     72%         -         0.0 km/h    1011.9 hpa     26.3º    0.0 mm
   18-08-2022    02:40      21.4º(-2.2)     72%         -         0.0 km/h    1011.9 hpa     26.3º    0.0 mm
   18-08-2022    02:35      21.5º(-2.2)     72%         -         0.0 km/h    1012.0 hpa     26.3º    0.0 mm
   18-08-2022    02:30      21.5º(-2.3)     72%         -         0.0 km/h    1012.1 hpa     26.3º    0.0 mm
   18-08-2022    02:25      21.5º(-2.4)     72%         -         0.0 km/h    1012.1 hpa     26.4º    0.0 mm
   18-08-2022    02:20      21.6º(-2.3)     71%         -         0.0 km/h    1012.0 hpa     26.4º    0.0 mm
   18-08-2022    02:15      21.6º(-2.5)     71%         -         0.0 km/h    1011.9 hpa     26.5º    0.0 mm
   18-08-2022    02:10      21.7º(-2.4)     71%         -         0.0 km/h    1012.0 hpa     26.5º    0.0 mm
   18-08-2022    02:05      21.7º(-2.5)     71%         -         0.0 km/h    1012.1 hpa     26.4º    0.0 mm
   18-08-2022    02:00      21.8º(-2.6)     71%         -         0.0 km/h    1012.2 hpa     26.4º    0.0 mm
   18-08-2022    01:55      21.8º(----)     71%         -         0.0 km/h    1012.1 hpa     26.5º    0.0 mm
   18-08-2022    01:50      21.8º(----)     71%         -         0.0 km/h    1012.1 hpa     26.4º    0.0 mm
   18-08-2022    01:45      21.8º(----)     71%         -         0.0 km/h    1012.1 hpa     26.4º    0.0 mm
   18-08-2022    01:40      21.8º(----)     71%         -         0.0 km/h    1012.1 hpa     26.3º    0.0 mm
   18-08-2022    01:35      21.7º(----)     71%         -         0.0 km/h    1012.1 hpa     26.3º    0.0 mm
   18-08-2022    01:30      21.7º(----)     70%         -         0.0 km/h    1012.0 hpa     26.3º    0.0 mm
   18-08-2022    01:25      21.7º(----)     70%         -         0.0 km/h    1012.1 hpa     26.2º    0.0 mm
   18-08-2022    01:20      21.7º(----)     70%         -         0.0 km/h    1012.0 hpa     26.2º    0.0 mm
   18-08-2022    01:15      21.7º(----)     70%         -         0.0 km/h    1012.1 hpa     26.2º    0.0 mm
   18-08-2022    01:10      21.8º(----)     70%         -         0.0 km/h    1012.0 hpa     26.2º    0.0 mm
   18-08-2022    01:05      21.8º(----)     71%         -         0.0 km/h    1011.9 hpa     26.2º    0.0 mm
   18-08-2022    01:00      21.8º(----)     71%         -         0.0 km/h    1011.9 hpa     26.2º    0.0 mm
   18-08-2022    00:55      21.8º(----)     71%         -         0.0 km/h    1011.9 hpa     26.2º    0.0 mm
   18-08-2022    00:50      21.8º(----)     71%         -         0.0 km/h    1011.9 hpa     26.2º    0.0 mm
   18-08-2022    00:45      21.9º(----)     71%         -         0.0 km/h    1012.0 hpa     26.2º    0.0 mm
   18-08-2022    00:40      22.0º(----)     71%         -         0.0 km/h    1012.0 hpa     26.2º    0.0 mm
   18-08-2022    00:35      22.1º(----)     70%         -         0.0 km/h    1012.0 hpa     26.2º    0.0 mm
   18-08-2022    00:30      22.2º(----)     70%         -         0.0 km/h    1011.8 hpa     26.2º    0.0 mm
   18-08-2022    00:25      22.3º(----)     69%         -         0.0 km/h    1011.9 hpa     26.2º    0.0 mm
   18-08-2022    00:20      22.4º(----)     68%         -         0.0 km/h    1011.9 hpa     26.2º    0.0 mm
   18-08-2022    00:15      22.4º(----)     68%         -         0.0 km/h    1011.9 hpa     26.2º    0.0 mm
   18-08-2022    00:10      22.4º(----)     67%         -         0.0 km/h    1011.8 hpa     26.2º    0.0 mm
   18-08-2022    00:05      22.5º(----)     67%         -         0.0 km/h    1011.9 hpa     26.2º    0.0 mm
   18-08-2022    00:00      22.6º(----)     66%         -         0.0 km/h    1011.9 hpa     26.2º    0.0 mm